Bredlow Corner, Arkansas
Current Conditions -  °F | °C
As of 12:35 PM on Saturday 25 Oct 2014 (Local Time) from KSGT Reporting Station
Clear Clear  
Wind Chill: 28°   Ceiling: Unl
Heat Index: 29°   Visibility: 10mi
Dew Point: 17°   Wind: 10mph
Humidity: 51%   Direction: 240°WSW
Pressure: 30.1"   Gusts: NA
Location:  34.5894°N, 91.9107°W
Report Text: KSGT 251735Z AUTO 24009KT 10SM CLR 28/17 A3010 RMK AO1
Loading
Personal Weather Stations






























Interactive Weather Map
Tropical Storm Tracking
New forecast layout! Learn more

10-Day Weather Forecast

Advertisements
Track Severe Weather on mobile